createdAt,value
2022-11-29T00:02:01.919Z,1.99
2022-11-29T00:04:29.710Z,2.17
2022-11-29T00:06:57.072Z,2.30
2022-11-29T00:09:24.589Z,2.42
2022-11-29T00:12:10.557Z,2.52
2022-11-29T00:14:37.839Z,2.56
2022-11-29T00:17:05.970Z,2.65
2022-11-29T00:19:34.779Z,2.71
2022-11-29T00:22:02.997Z,2.75
2022-11-29T00:24:32.380Z,2.74
2022-11-29T00:27:00.095Z,2.76
2022-11-29T00:32:12.620Z,2.81
2022-11-29T00:34:39.952Z,2.82
2022-11-29T00:37:07.260Z,2.81
2022-11-29T00:39:34.566Z,2.83
2022-11-29T00:42:01.886Z,2.85
2022-11-29T00:44:29.278Z,2.85
2022-11-29T00:46:56.632Z,2.86
2022-11-29T00:49:25.556Z,2.91
2022-11-29T00:51:53.245Z,2.82
2022-11-29T00:54:21.584Z,2.85
2022-11-29T00:56:49.153Z,2.82
2022-11-29T00:59:16.576Z,2.79
2022-11-29T01:01:47.821Z,2.78
2022-11-29T01:04:15.236Z,2.82
2022-11-29T01:06:42.844Z,2.81
2022-11-29T01:09:10.221Z,2.79
2022-11-29T01:11:37.782Z,2.75
2022-11-29T01:14:05.128Z,2.74
2022-11-29T01:16:32.875Z,2.68
2022-11-29T01:19:00.611Z,2.64
2022-11-29T01:21:28.141Z,2.55
2022-11-29T01:23:55.560Z,2.48
2022-11-29T01:26:26.380Z,2.38
2022-11-29T01:28:55.585Z,2.38
2022-11-29T01:31:26.173Z,2.33
2022-11-29T01:33:55.453Z,2.27
2022-11-29T01:36:23.809Z,2.14
2022-11-29T01:38:51.548Z,2.06
2022-11-29T01:41:23.382Z,1.92
2022-11-29T01:44:05.492Z,1.76
2022-11-29T01:46:38.553Z,1.66
2022-11-29T01:49:12.077Z,1.59
2022-11-29T01:51:50.378Z,1.56
2022-11-29T01:54:18.419Z,1.47
2022-11-29T01:56:48.782Z,1.45
2022-11-29T01:59:19.232Z,1.42
2022-11-29T02:01:46.585Z,1.38
2022-11-29T02:04:14.468Z,1.32
2022-11-29T02:06:43.564Z,1.23
2022-11-29T02:09:22.069Z,1.24
2022-11-29T02:11:59.067Z,1.24
2022-11-29T02:14:50.154Z,1.24
2022-11-29T02:17:40.983Z,1.17
2022-11-29T02:20:35.496Z,1.18
2022-11-29T02:23:23.601Z,1.16
2022-11-29T02:25:59.710Z,1.13
2022-11-29T02:28:53.071Z,1.16
2022-11-29T02:31:41.908Z,1.17
2022-11-29T02:34:18.704Z,1.20
2022-11-29T02:36:56.316Z,1.20
2022-11-29T02:39:38.846Z,1.20
2022-11-29T02:42:54.075Z,1.20
2022-11-29T02:45:55.415Z,1.21
2022-11-29T02:48:28.697Z,1.21
2022-11-29T02:51:08.901Z,1.10
2022-11-29T02:54:02.365Z,1.10
2022-11-29T02:56:56.747Z,1.05
2022-11-29T03:00:08.006Z,1.07
2022-11-29T03:03:08.537Z,1.04
2022-11-29T03:05:51.427Z,1.01
2022-11-29T03:08:47.994Z,1.04
2022-11-29T03:11:53.098Z,1.04
2022-11-29T03:14:33.493Z,1.04
2022-11-29T03:17:30.547Z,0.99
2022-11-29T03:20:26.191Z,1.00
2022-11-29T03:22:59.170Z,0.99
2022-11-29T03:25:33.158Z,0.93
2022-11-29T03:28:18.773Z,0.96
2022-11-29T03:30:56.687Z,0.99
2022-11-29T03:33:38.167Z,0.97
2022-11-29T03:36:23.077Z,1.01
2022-11-29T03:38:55.393Z,1.05
2022-11-29T03:41:35.300Z,1.08
2022-11-29T03:44:08.579Z,1.13
2022-11-29T03:46:47.901Z,1.24
2022-11-29T03:49:32.182Z,1.28
2022-11-29T03:52:17.779Z,1.28
2022-11-29T03:55:10.393Z,1.26
2022-11-29T03:58:07.550Z,1.18
2022-11-29T04:01:07.174Z,1.16
2022-11-29T04:03:46.621Z,1.07
2022-11-29T04:06:39.578Z,1.03
2022-11-29T04:09:35.749Z,0.99
2022-11-29T04:12:30.229Z,1.03
2022-11-29T04:15:17.428Z,1.05
2022-11-29T04:18:15.841Z,1.05
2022-11-29T04:21:09.329Z,0.99
2022-11-29T04:23:56.022Z,0.96
2022-11-29T04:26:56.763Z,1.03
2022-11-29T04:29:43.296Z,1.04
2022-11-29T04:32:29.259Z,1.14
2022-11-29T04:35:19.541Z,1.14
2022-11-29T04:38:02.200Z,1.16
2022-11-29T04:40:52.483Z,1.08
2022-11-29T04:43:26.393Z,1.05
2022-11-29T04:46:11.646Z,0.97
2022-11-29T04:48:55.479Z,0.99
2022-11-29T04:51:25.456Z,0.94
2022-11-29T04:54:08.393Z,0.89
2022-11-29T04:56:51.773Z,0.83
2022-11-29T04:59:47.629Z,0.82
2022-11-29T05:02:33.750Z,0.83
2022-11-29T05:05:41.577Z,0.80
2022-11-29T05:08:14.944Z,0.79
2022-11-29T05:11:05.897Z,0.75
2022-11-29T05:14:04.454Z,0.70
2022-11-29T05:16:47.240Z,0.75
2022-11-29T05:19:25.132Z,0.72
2022-11-29T05:22:07.833Z,0.76
2022-11-29T05:24:44.415Z,0.83
2022-11-29T05:27:54.188Z,0.90
2022-11-29T05:30:23.700Z,1.00
2022-11-29T05:32:57.972Z,1.14
2022-11-29T05:35:54.881Z,1.32
2022-11-29T05:38:43.834Z,1.41
2022-11-29T05:41:16.798Z,1.51
2022-11-29T05:44:02.928Z,1.55
2022-11-29T05:46:53.553Z,1.62
2022-11-29T05:49:43.475Z,1.68
2022-11-29T05:52:35.658Z,1.73
2022-11-29T05:55:15.305Z,1.69
2022-11-29T05:58:11.769Z,1.70
2022-11-29T06:00:54.822Z,1.69
2022-11-29T06:03:39.387Z,1.68
2022-11-29T06:06:19.344Z,1.68
2022-11-29T06:09:05.437Z,1.76
2022-11-29T06:11:39.535Z,1.83
2022-11-29T06:14:38.329Z,1.93
2022-11-29T06:17:14.416Z,1.96
2022-11-29T06:20:11.012Z,2.10
2022-11-29T06:22:59.552Z,2.14
2022-11-29T06:25:47.340Z,2.07
2022-11-29T06:28:38.640Z,2.07
2022-11-29T06:31:22.796Z,2.10
2022-11-29T06:34:09.291Z,2.17
2022-11-29T06:36:46.337Z,2.10
2022-11-29T06:39:14.427Z,2.13
2022-11-29T06:41:41.781Z,2.20
2022-11-29T06:44:10.462Z,2.24
2022-11-29T06:47:00.133Z,2.34
2022-11-29T06:49:29.132Z,2.38
2022-11-29T06:52:08.686Z,2.48
2022-11-29T06:55:04.394Z,2.62
2022-11-29T06:57:44.139Z,2.74
2022-11-29T07:00:22.242Z,2.82
2022-11-29T07:03:06.546Z,2.79
2022-11-29T07:05:35.956Z,2.88
2022-11-29T07:08:13.821Z,2.96
2022-11-29T07:10:42.935Z,2.99
2022-11-29T07:13:13.837Z,3.19
2022-11-29T07:16:06.235Z,3.20
2022-11-29T07:18:33.614Z,3.19
2022-11-29T07:21:34.503Z,3.30
2022-11-29T07:24:21.304Z,3.57
2022-11-29T07:26:59.700Z,3.62
2022-11-29T07:29:40.036Z,3.52
2022-11-29T07:32:25.329Z,3.45
2022-11-29T07:35:15.222Z,3.50
2022-11-29T07:38:03.487Z,3.44
2022-11-29T07:40:48.198Z,3.51
2022-11-29T07:43:34.013Z,3.68
2022-11-29T07:46:01.653Z,3.72
2022-11-29T07:48:28.967Z,3.54
2022-11-29T07:50:56.910Z,3.60
2022-11-29T07:53:24.614Z,3.74
2022-11-29T07:55:52.026Z,3.99
2022-11-29T07:58:19.599Z,4.02
2022-11-29T08:00:47.042Z,4.20
2022-11-29T08:03:14.692Z,4.38
2022-11-29T08:05:46.472Z,4.24
2022-11-29T08:08:14.119Z,4.13
2022-11-29T08:10:41.520Z,4.33
2022-11-29T08:13:08.870Z,4.47
2022-11-29T08:15:36.417Z,4.38
2022-11-29T08:18:04.501Z,4.37
2022-11-29T08:20:31.785Z,4.46
2022-11-29T08:23:00.051Z,4.53
2022-11-29T08:25:28.193Z,4.32
2022-11-29T08:27:56.136Z,4.48
2022-11-29T08:30:24.193Z,4.61
2022-11-29T08:32:52.600Z,4.21
2022-11-29T08:35:22.112Z,4.46
2022-11-29T08:37:51.666Z,4.34
2022-11-29T08:40:19.154Z,4.47
2022-11-29T08:42:46.449Z,4.53
2022-11-29T08:45:14.049Z,4.67
2022-11-29T08:47:42.465Z,4.71
2022-11-29T08:50:15.557Z,4.46
2022-11-29T08:53:04.652Z,4.36
2022-11-29T08:55:37.719Z,4.51
2022-11-29T08:58:07.269Z,4.57
2022-11-29T09:00:35.156Z,4.51
2022-11-29T09:03:22.921Z,4.58
2022-11-29T09:05:50.448Z,4.77
2022-11-29T09:08:18.203Z,5.02
2022-11-29T09:10:46.222Z,5.48
2022-11-29T09:13:13.733Z,5.57
2022-11-29T09:15:43.493Z,5.39
2022-11-29T09:18:11.468Z,5.23
2022-11-29T09:20:41.823Z,5.20
2022-11-29T09:23:09.337Z,5.20
2022-11-29T09:25:36.881Z,4.98
2022-11-29T09:28:04.289Z,5.30
2022-11-29T09:30:31.979Z,4.99
2022-11-29T09:33:02.679Z,4.93
2022-11-29T09:35:30.232Z,5.08
2022-11-29T09:37:57.522Z,4.96
2022-11-29T09:40:37.603Z,4.99
2022-11-29T09:43:22.982Z,5.04
2022-11-29T09:45:57.447Z,5.08
2022-11-29T09:48:37.085Z,5.23
2022-11-29T09:51:19.420Z,5.20
2022-11-29T09:54:05.766Z,5.32
2022-11-29T09:56:40.835Z,5.46
2022-11-29T09:59:13.843Z,5.71
2022-11-29T10:01:47.572Z,5.92
2022-11-29T10:04:24.915Z,5.87
2022-11-29T10:07:17.740Z,6.13
2022-11-29T10:09:50.586Z,6.08
2022-11-29T10:12:23.815Z,5.75
2022-11-29T10:14:57.317Z,5.78
2022-11-29T10:17:28.633Z,5.61
2022-11-29T10:20:22.391Z,5.67
2022-11-29T10:23:05.150Z,5.55
2022-11-29T10:25:46.719Z,5.55
2022-11-29T10:28:17.397Z,5.68
2022-11-29T10:30:46.464Z,5.81
2022-11-29T10:33:21.401Z,5.94
2022-11-29T10:35:55.614Z,5.90
2022-11-29T10:38:32.055Z,5.95
2022-11-29T10:41:15.959Z,6.01
2022-11-29T10:43:43.409Z,6.12
2022-11-29T10:46:23.339Z,6.18
2022-11-29T10:48:50.718Z,6.09
2022-11-29T10:51:18.350Z,5.98
2022-11-29T10:53:46.712Z,5.94
2022-11-29T10:56:24.217Z,5.82
2022-11-29T10:59:05.327Z,5.65
2022-11-29T11:01:36.992Z,5.60
2022-11-29T11:04:07.551Z,5.55
2022-11-29T11:06:48.324Z,5.60
2022-11-29T11:09:21.256Z,5.65
2022-11-29T11:11:53.140Z,5.84
2022-11-29T11:14:23.538Z,5.77
2022-11-29T11:16:51.378Z,5.65
2022-11-29T11:19:29.375Z,5.65
2022-11-29T11:22:06.146Z,5.71
2022-11-29T11:24:36.579Z,5.64
2022-11-29T11:27:04.359Z,5.65
2022-11-29T11:29:40.672Z,5.64
2022-11-29T11:32:16.673Z,5.73
2022-11-29T11:34:55.520Z,5.77
2022-11-29T11:37:33.363Z,5.81
2022-11-29T11:40:29.472Z,5.85
2022-11-29T11:42:59.521Z,6.11
2022-11-29T11:45:37.131Z,6.16
2022-11-29T11:48:13.639Z,6.03
2022-11-29T11:50:57.184Z,5.88
2022-11-29T11:53:37.411Z,5.94
2022-11-29T11:56:07.251Z,5.94
2022-11-29T11:58:51.940Z,5.88
2022-11-29T12:01:38.616Z,5.92
2022-11-29T12:04:17.961Z,5.79
2022-11-29T12:06:52.543Z,5.64
2022-11-29T12:09:38.235Z,5.70
2022-11-29T12:12:11.287Z,5.82
2022-11-29T12:15:01.466Z,5.97
2022-11-29T12:17:34.416Z,5.98
2022-11-29T12:20:30.460Z,5.85
2022-11-29T12:23:06.567Z,6.02
2022-11-29T12:25:40.894Z,6.02
2022-11-29T12:28:19.858Z,6.03
2022-11-29T12:30:51.023Z,5.92
2022-11-29T12:33:42.186Z,5.88
2022-11-29T12:36:13.146Z,5.81
2022-11-29T12:38:40.443Z,5.75
2022-11-29T12:41:20.456Z,5.94
2022-11-29T12:43:53.582Z,5.77
2022-11-29T12:46:26.356Z,5.73
2022-11-29T12:49:24.601Z,5.87
2022-11-29T12:52:38.581Z,5.79
2022-11-29T12:55:43.778Z,5.63
2022-11-29T12:58:34.925Z,5.67
2022-11-29T13:01:23.413Z,5.68
2022-11-29T13:04:17.218Z,5.78
2022-11-29T13:06:53.759Z,5.70
2022-11-29T13:09:58.195Z,5.78
2022-11-29T13:12:46.259Z,5.81
2022-11-29T13:15:33.043Z,5.85
2022-11-29T13:18:23.000Z,5.88
2022-11-29T13:21:07.853Z,5.82
2022-11-29T13:24:07.451Z,5.79
2022-11-29T13:26:29.971Z,5.74
2022-11-29T13:28:58.265Z,5.71
2022-11-29T13:31:26.263Z,5.78
2022-11-29T13:34:07.648Z,5.82
2022-11-29T13:37:09.027Z,5.84
2022-11-29T13:39:54.855Z,5.91
2022-11-29T13:42:29.744Z,5.88
2022-11-29T13:45:21.451Z,5.85
2022-11-29T13:47:51.605Z,5.77
2022-11-29T13:50:39.043Z,5.90
2022-11-29T13:53:20.367Z,5.92
2022-11-29T13:55:59.911Z,5.91
2022-11-29T13:58:39.841Z,5.84
2022-11-29T14:01:13.145Z,5.82
2022-11-29T14:03:51.745Z,5.73
2022-11-29T14:06:33.154Z,5.70
2022-11-29T14:09:38.436Z,5.71
2022-11-29T14:12:31.235Z,5.67
2022-11-29T14:15:03.083Z,5.61
2022-11-29T14:17:59.675Z,5.61
2022-11-29T14:20:28.402Z,5.63
2022-11-29T14:23:04.917Z,5.61
2022-11-29T14:25:51.092Z,5.63
2022-11-29T14:28:22.363Z,5.60
2022-11-29T14:30:52.195Z,5.63
2022-11-29T14:33:38.108Z,5.63
2022-11-29T14:36:14.468Z,5.61
2022-11-29T14:39:10.425Z,5.58
2022-11-29T14:42:01.334Z,5.54
2022-11-29T14:44:30.956Z,5.54
2022-11-29T14:47:04.347Z,5.53
2022-11-29T14:49:39.957Z,5.50
2022-11-29T14:52:13.306Z,5.50
2022-11-29T14:55:16.886Z,5.47
2022-11-29T14:57:49.054Z,5.50
2022-11-29T15:00:19.354Z,5.51
2022-11-29T15:02:55.512Z,5.50
2022-11-29T15:05:28.175Z,5.48
2022-11-29T15:08:26.797Z,5.50
2022-11-29T15:11:12.421Z,5.46
2022-11-29T15:13:54.261Z,5.48
2022-11-29T15:16:26.405Z,5.46
2022-11-29T15:19:13.305Z,5.46
2022-11-29T15:21:58.462Z,5.46
2022-11-29T15:24:28.682Z,5.42
2022-11-29T15:27:01.805Z,5.42
2022-11-29T15:29:30.990Z,5.40
2022-11-29T15:32:01.693Z,5.39
2022-11-29T15:34:36.963Z,5.39
2022-11-29T15:37:04.746Z,5.36
2022-11-29T15:39:37.707Z,5.36
2022-11-29T15:42:12.152Z,5.40
2022-11-29T15:44:47.224Z,5.36
2022-11-29T15:47:32.664Z,5.36
2022-11-29T15:50:00.029Z,5.32
2022-11-29T15:52:34.223Z,5.33
2022-11-29T15:55:05.487Z,5.29
2022-11-29T15:57:38.814Z,5.26
2022-11-29T16:00:15.413Z,5.25
2022-11-29T16:02:53.476Z,5.22
2022-11-29T16:05:26.920Z,5.25
2022-11-29T16:07:59.146Z,5.25
2022-11-29T16:10:36.849Z,5.22
2022-11-29T16:13:07.208Z,5.13
2022-11-29T16:15:37.276Z,5.12
2022-11-29T16:18:22.171Z,5.13
2022-11-29T16:21:00.992Z,5.18
2022-11-29T16:23:36.800Z,5.15
2022-11-29T16:26:18.948Z,5.13
2022-11-29T16:28:49.695Z,5.16
2022-11-29T16:31:19.069Z,5.18
2022-11-29T16:33:49.252Z,5.15
2022-11-29T16:36:25.221Z,5.22
2022-11-29T16:39:14.500Z,5.20
2022-11-29T16:41:41.869Z,5.19
2022-11-29T16:44:42.781Z,5.22
2022-11-29T16:47:27.636Z,5.20
2022-11-29T16:50:13.494Z,5.19
2022-11-29T16:52:40.876Z,5.15
2022-11-29T16:55:08.608Z,5.16
2022-11-29T16:57:36.722Z,5.15
2022-11-29T17:00:33.383Z,5.13
2022-11-29T17:03:00.783Z,5.09
2022-11-29T17:05:28.340Z,5.02
2022-11-29T17:07:55.823Z,5.02
2022-11-29T17:10:26.016Z,5.02
2022-11-29T17:12:53.500Z,4.99
2022-11-29T17:15:20.879Z,5.00
2022-11-29T17:17:48.294Z,5.04
2022-11-29T17:20:15.782Z,4.98
2022-11-29T17:22:43.077Z,4.96
2022-11-29T17:25:10.955Z,4.93
2022-11-29T17:27:38.314Z,4.88
2022-11-29T17:30:06.999Z,4.85
2022-11-29T17:32:38.391Z,4.89
2022-11-29T17:35:06.088Z,4.88
2022-11-29T17:37:37.160Z,4.91
2022-11-29T17:40:05.231Z,4.96
2022-11-29T17:42:32.520Z,4.96
2022-11-29T17:44:59.841Z,4.91
2022-11-29T17:47:27.182Z,4.91
2022-11-29T17:49:54.767Z,4.86
2022-11-29T17:52:23.113Z,4.91
2022-11-29T17:54:50.548Z,4.89
2022-11-29T17:57:18.365Z,4.92
2022-11-29T17:59:47.354Z,4.95
2022-11-29T18:02:15.098Z,4.93
2022-11-29T18:04:43.979Z,4.91
2022-11-29T18:07:13.292Z,4.91
2022-11-29T18:09:45.197Z,4.95
2022-11-29T18:12:12.818Z,4.91
2022-11-29T18:14:41.352Z,4.95
2022-11-29T18:17:09.407Z,4.96
2022-11-29T18:19:36.805Z,4.93
2022-11-29T18:22:05.231Z,4.92
2022-11-29T18:24:34.068Z,4.84
2022-11-29T18:27:02.166Z,4.86
2022-11-29T18:29:32.771Z,4.82
2022-11-29T18:32:05.153Z,4.82
2022-11-29T18:34:32.469Z,4.79
2022-11-29T18:36:59.825Z,4.78
2022-11-29T18:39:27.266Z,4.77
2022-11-29T18:41:55.292Z,4.74
2022-11-29T18:44:30.044Z,4.64
2022-11-29T18:46:59.374Z,4.67
2022-11-29T18:49:27.982Z,4.61
2022-11-29T18:51:55.308Z,4.61
2022-11-29T18:54:23.381Z,4.61
2022-11-29T18:56:51.451Z,4.62
2022-11-29T18:59:19.532Z,4.61
2022-11-29T19:01:48.049Z,4.62
2022-11-29T19:04:19.207Z,4.62
2022-11-29T19:06:47.967Z,4.61
2022-11-29T19:09:18.461Z,4.69
2022-11-29T19:11:45.819Z,4.68
2022-11-29T19:14:15.179Z,4.67
2022-11-29T19:16:46.214Z,4.60
2022-11-29T19:19:18.933Z,4.60
2022-11-29T19:21:46.557Z,4.51
2022-11-29T19:24:15.741Z,4.54
2022-11-29T19:26:46.582Z,4.61
2022-11-29T19:29:14.627Z,4.61
2022-11-29T19:31:42.802Z,4.57
2022-11-29T19:34:10.632Z,4.54
2022-11-29T19:36:43.697Z,4.47
2022-11-29T19:39:14.269Z,4.50
2022-11-29T19:41:44.180Z,4.50
2022-11-29T19:44:11.814Z,4.51
2022-11-29T19:46:42.472Z,4.56
2022-11-29T19:49:10.956Z,4.58
2022-11-29T19:51:38.573Z,4.64
2022-11-29T19:54:08.296Z,4.62
2022-11-29T19:56:35.859Z,4.65
2022-11-29T19:59:03.502Z,4.69
2022-11-29T20:01:40.079Z,4.69
2022-11-29T20:04:08.613Z,4.75
2022-11-29T20:06:36.690Z,4.77
2022-11-29T20:09:08.002Z,4.82
2022-11-29T20:11:38.177Z,4.75
2022-11-29T20:14:08.013Z,4.77
2022-11-29T20:16:38.220Z,4.77
2022-11-29T20:19:12.044Z,4.69
2022-11-29T20:21:48.763Z,4.68
2022-11-29T20:24:17.508Z,4.68
2022-11-29T20:26:46.836Z,4.65
2022-11-29T20:29:15.130Z,4.60
2022-11-29T20:31:49.493Z,4.57
2022-11-29T20:34:19.728Z,4.54
2022-11-29T20:36:49.914Z,4.54
2022-11-29T20:39:45.846Z,4.47
2022-11-29T20:42:25.249Z,4.48
2022-11-29T20:44:55.444Z,4.41
2022-11-29T20:47:25.289Z,4.33
2022-11-29T20:49:54.230Z,4.38
2022-11-29T20:52:43.241Z,4.33
2022-11-29T20:55:10.636Z,4.32
2022-11-29T20:57:41.114Z,4.32
2022-11-29T21:00:12.811Z,4.21
2022-11-29T21:02:41.099Z,4.16
2022-11-29T21:05:16.415Z,4.20
2022-11-29T21:07:46.035Z,4.14
2022-11-29T21:10:16.433Z,4.14
2022-11-29T21:12:45.901Z,4.11
2022-11-29T21:15:15.089Z,4.11
2022-11-29T21:17:43.375Z,4.10
2022-11-29T21:20:22.373Z,4.10
2022-11-29T21:23:01.280Z,4.06
2022-11-29T21:25:43.735Z,4.03
2022-11-29T21:28:13.953Z,4.02
2022-11-29T21:30:42.499Z,3.99
2022-11-29T21:33:13.901Z,3.98
2022-11-29T21:35:43.160Z,4.00
2022-11-29T21:38:14.795Z,4.02
2022-11-29T21:40:42.166Z,3.93
2022-11-29T21:43:11.353Z,3.92
2022-11-29T21:45:38.651Z,3.96
2022-11-29T21:48:26.043Z,3.92
2022-11-29T21:50:53.362Z,3.93
2022-11-29T21:53:20.858Z,3.95
2022-11-29T21:55:48.173Z,3.98
2022-11-29T21:58:15.526Z,4.02
2022-11-29T22:00:43.436Z,3.98
2022-11-29T22:03:10.802Z,3.95
2022-11-29T22:05:39.584Z,3.95
2022-11-29T22:08:07.176Z,3.95
2022-11-29T22:10:34.557Z,3.93
2022-11-29T22:13:02.136Z,3.92
2022-11-29T22:15:29.673Z,3.90
2022-11-29T22:17:57.041Z,3.85
2022-11-29T22:20:24.315Z,3.79
2022-11-29T22:22:57.111Z,3.74
2022-11-29T22:25:26.095Z,3.75
2022-11-29T22:27:53.378Z,3.72
2022-11-29T22:30:20.905Z,3.67
2022-11-29T22:32:48.251Z,3.65
2022-11-29T22:35:15.704Z,3.62
2022-11-29T22:37:43.197Z,3.65
2022-11-29T22:40:10.755Z,3.61
2022-11-29T22:42:38.206Z,3.65
2022-11-29T22:45:06.193Z,3.65
2022-11-29T22:47:35.752Z,3.67
2022-11-29T22:50:03.230Z,3.71
2022-11-29T22:52:30.499Z,3.75
2022-11-29T22:55:02.907Z,3.71
2022-11-29T22:57:32.025Z,3.72
2022-11-29T22:59:59.272Z,3.67
2022-11-29T23:02:28.156Z,3.61
2022-11-29T23:04:55.473Z,3.57
2022-11-29T23:07:23.083Z,3.52
2022-11-29T23:09:50.428Z,3.48
2022-11-29T23:12:17.866Z,3.47
2022-11-29T23:14:45.517Z,3.54
2022-11-29T23:17:13.103Z,3.55
2022-11-29T23:19:40.481Z,3.58
2022-11-29T23:22:07.803Z,3.58
2022-11-29T23:24:35.137Z,3.58
2022-11-29T23:27:03.386Z,3.57
2022-11-29T23:29:30.681Z,3.60
2022-11-29T23:31:58.949Z,3.64
2022-11-29T23:34:29.292Z,3.64
2022-11-29T23:36:56.702Z,3.61
2022-11-29T23:39:24.089Z,3.62
2022-11-29T23:41:53.114Z,3.67
2022-11-29T23:44:20.530Z,3.65
2022-11-29T23:46:50.210Z,3.64
2022-11-29T23:49:21.077Z,3.65
2022-11-29T23:51:49.488Z,3.65
2022-11-29T23:54:16.796Z,3.68
2022-11-29T23:56:44.133Z,3.69
2022-11-29T23:59:12.091Z,3.69
